Time;durP1;ratioP1;P1;durP2;ratioP2;P2;SDS_P1;SDS_P2;PMS_P1;PMS_P2;Temp;Humidity;BMP_temperature;BMP_pressure;BME280_temperature;BME280_humidity;BME280_pressure;Samples;Min_cycle;Max_cycle;Signal;HPM_P1;HPM_P2
2021/03/25 00:01:08;;;;;;;63.80;40.17;;;8.10;99.90;;;;;;5038007;28;20467;-89
2021/03/25 00:03:36;;;;;;;56.27;36.07;;;8.00;99.90;;;;;;5038311;28;20489;-87
2021/03/25 00:06:02;;;;;;;69.30;39.83;;;7.90;99.90;;;;;;5038089;28;20479;-87
2021/03/25 00:08:27;;;;;;;56.40;34.00;;;7.80;99.90;;;;;;5056133;28;20414;-87
2021/03/25 00:10:54;;;;;;;54.97;35.80;;;7.70;99.90;;;;;;5056640;28;20250;-87
2021/03/25 00:13:20;;;;;;;54.20;37.33;;;7.60;99.90;;;;;;5063624;28;20166;-87
2021/03/25 00:15:46;;;;;;;57.17;37.30;;;7.50;99.90;;;;;;5062792;28;20806;-88
2021/03/25 00:18:13;;;;;;;68.70;40.10;;;7.50;99.90;;;;;;5062993;28;20424;-86
2021/03/25 00:20:39;;;;;;;65.43;38.87;;;7.50;99.90;;;;;;5063150;28;20182;-87
2021/03/25 00:23:05;;;;;;;67.73;42.40;;;7.40;99.90;;;;;;5063684;28;21025;-86
2021/03/25 00:25:33;;;;;;;71.20;39.07;;;7.50;99.90;;;;;;5064699;28;20217;-88
2021/03/25 00:27:59;;;;;;;63.00;37.57;;;7.40;99.90;;;;;;5064882;28;20495;-88
2021/03/25 00:30:28;;;;;;;75.63;42.87;;;7.50;99.90;;;;;;5062173;28;20421;-87
2021/03/25 00:32:55;;;;;;;68.53;38.80;;;7.30;99.90;;;;;;5060603;28;20430;-87
2021/03/25 00:35:23;;;;;;;63.90;37.90;;;7.30;99.90;;;;;;5055937;28;20462;-87
2021/03/25 00:37:49;;;;;;;69.17;38.03;;;7.30;99.90;;;;;;5054383;28;20849;-87
2021/03/25 00:40:15;;;;;;;74.13;42.53;;;7.20;99.90;;;;;;5054319;28;20419;-88
2021/03/25 00:42:41;;;;;;;65.17;38.53;;;7.10;99.90;;;;;;5054358;28;20174;-88
2021/03/25 00:45:10;;;;;;;61.20;39.83;;;7.10;99.90;;;;;;5054423;28;20534;-87
2021/03/25 00:47:36;;;;;;;66.63;40.40;;;7.10;99.90;;;;;;5054141;28;20204;-88
2021/03/25 00:50:06;;;;;;;65.93;40.80;;;7.10;99.90;;;;;;5055567;28;20412;-88
2021/03/25 00:52:32;;;;;;;69.90;41.97;;;7.00;99.90;;;;;;5054097;28;20181;-87
2021/03/25 00:54:57;;;;;;;67.80;36.53;;;7.00;99.90;;;;;;5053942;28;20417;-87
2021/03/25 00:57:23;;;;;;;74.80;45.57;;;7.00;99.90;;;;;;5055244;28;20566;-87
2021/03/25 00:59:48;;;;;;;74.60;43.40;;;7.00;99.90;;;;;;5054912;28;20177;-87
2021/03/25 01:02:14;;;;;;;67.70;40.17;;;7.00;99.90;;;;;;5053804;28;20206;-87
2021/03/25 01:04:40;;;;;;;69.93;41.27;;;7.00;99.90;;;;;;5055050;28;20200;-87
2021/03/25 01:07:05;;;;;;;64.90;39.50;;;7.00;99.90;;;;;;5053597;28;20264;-87
2021/03/25 01:09:31;;;;;;;72.07;42.50;;;7.00;99.90;;;;;;5053577;28;20177;-87
2021/03/25 01:12:06;;;;;;;61.20;37.57;;;6.90;99.90;;;;;;5053560;28;20176;-87
2021/03/25 01:14:37;;;;;;;65.67;39.57;;;6.80;99.90;;;;;;5053173;28;20518;-87
2021/03/25 01:17:05;;;;;;;62.80;37.47;;;6.90;99.90;;;;;;5053150;28;20420;-88
2021/03/25 01:19:32;;;;;;;61.93;38.90;;;6.80;99.90;;;;;;5053482;28;20420;-88
2021/03/25 01:21:59;;;;;;;70.83;42.57;;;6.70;99.90;;;;;;5053427;28;20409;-87
2021/03/25 01:24:25;;;;;;;70.90;41.50;;;6.60;99.90;;;;;;5053108;28;20464;-88
2021/03/25 01:26:51;;;;;;;66.83;40.20;;;6.60;99.90;;;;;;5053439;28;20419;-87
2021/03/25 01:29:18;;;;;;;69.43;39.43;;;6.50;99.90;;;;;;5052961;28;20503;-87
2021/03/25 01:31:44;;;;;;;67.53;39.20;;;6.40;99.90;;;;;;5054519;28;20188;-87
2021/03/25 01:34:15;;;;;;;71.17;40.50;;;6.40;99.90;;;;;;5054395;28;20416;-86
2021/03/25 01:36:41;;;;;;;69.47;39.57;;;6.40;99.90;;;;;;5053220;28;20185;-87
2021/03/25 01:39:07;;;;;;;72.37;39.53;;;6.30;99.90;;;;;;5053178;28;20424;-87
2021/03/25 01:41:35;;;;;;;59.67;37.70;;;6.30;99.90;;;;;;5054306;28;20626;-87
2021/03/25 01:44:02;;;;;;;64.30;39.60;;;6.40;99.90;;;;;;5058758;28;20419;-85
2021/03/25 01:46:33;;;;;;;66.33;38.53;;;6.20;99.90;;;;;;5052552;28;20874;-85
2021/03/25 01:49:03;;;;;;;64.07;38.80;;;6.20;99.90;;;;;;5052810;28;20452;-85
2021/03/25 01:51:47;;;;;;;61.47;38.43;;;6.20;99.90;;;;;;5052741;28;20435;-85
2021/03/25 01:54:37;;;;;;;67.80;38.57;;;6.20;99.90;;;;;;5052698;28;21050;-85
2021/03/25 01:57:21;;;;;;;66.40;38.87;;;6.20;99.90;;;;;;5052366;28;20416;-86
2021/03/25 01:59:56;;;;;;;68.03;39.33;;;6.10;99.90;;;;;;5053589;28;20462;-86
2021/03/25 02:02:21;;;;;;;71.17;37.77;;;6.10;99.90;;;;;;5053938;28;20473;-86
2021/03/25 02:05:06;;;;;;;59.30;36.80;;;6.10;99.90;;;;;;5052476;28;20463;-86
2021/03/25 02:08:01;;;;;;;65.07;37.77;;;6.10;99.90;;;;;;5053041;28;20634;-86
2021/03/25 02:10:33;;;;;;;62.93;38.50;;;6.00;99.90;;;;;;5054366;28;20412;-86
2021/03/25 02:13:30;;;;;;;60.80;35.80;;;6.00;99.90;;;;;;5053341;28;20427;-86
2021/03/25 02:16:01;;;;;;;61.37;37.77;;;6.00;99.90;;;;;;5053586;28;20793;-86
2021/03/25 02:18:49;;;;;;;61.40;35.57;;;6.00;99.90;;;;;;5052342;28;20420;-86
2021/03/25 02:21:30;;;;;;;62.50;34.90;;;6.00;99.90;;;;;;5052403;28;20481;-85
2021/03/25 02:24:14;;;;;;;62.47;37.83;;;6.00;99.90;;;;;;5033726;28;20415;-85
2021/03/25 02:27:11;;;;;;;59.80;36.10;;;6.00;99.90;;;;;;5016027;28;20445;-86
2021/03/25 02:29:55;;;;;;;57.30;33.57;;;5.90;99.90;;;;;;5014618;28;20459;-85
2021/03/25 02:32:52;;;;;;;66.07;35.50;;;5.90;99.90;;;;;;5015935;28;20413;-86
2021/03/25 02:35:56;;;;;;;56.70;36.53;;;5.90;99.90;;;;;;5032653;28;20991;-86
2021/03/25 02:38:35;;;;;;;66.47;37.20;;;5.90;99.90;;;;;;5012347;28;20459;-86
2021/03/25 02:41:06;;;;;;;55.50;35.10;;;6.00;99.90;;;;;;5015635;28;20440;-86
2021/03/25 02:43:44;;;;;;;61.73;35.40;;;5.90;99.90;;;;;;5015480;28;20417;-86
2021/03/25 02:46:19;;;;;;;58.10;33.60;;;6.00;99.90;;;;;;5015266;28;20429;-86
2021/03/25 02:48:48;;;;;;;52.70;33.17;;;6.00;99.90;;;;;;5033255;28;20466;-86
2021/03/25 02:51:30;;;;;;;62.47;37.10;;;6.10;99.90;;;;;;5033246;28;20418;-87
2021/03/25 02:53:56;;;;;;;53.63;33.93;;;6.20;99.90;;;;;;5032826;28;20950;-86
2021/03/25 02:56:36;;;;;;;55.53;37.17;;;6.20;99.90;;;;;;5033151;28;20452;-86
2021/03/25 02:59:11;;;;;;;64.13;38.80;;;6.20;99.90;;;;;;5032672;28;20419;-85
2021/03/25 03:01:48;;;;;;;60.57;37.30;;;6.30;99.90;;;;;;5033004;28;20474;-85
2021/03/25 03:04:24;;;;;;;63.60;35.67;;;6.40;99.90;;;;;;5015371;28;20464;-86
2021/03/25 03:07:03;;;;;;;66.50;39.20;;;6.40;99.90;;;;;;5015267;28;20443;-85
2021/03/25 03:09:35;;;;;;;67.20;40.00;;;6.50;99.90;;;;;;5032682;28;20420;-86
2021/03/25 03:12:04;;;;;;;67.60;38.00;;;6.50;99.90;;;;;;5032986;28;20406;-86
2021/03/25 03:14:37;;;;;;;68.13;38.10;;;6.60;99.90;;;;;;5014632;28;20551;-86
2021/03/25 03:17:41;;;;;;;69.33;39.50;;;6.70;99.90;;;;;;5032685;28;20432;-86
2021/03/25 03:20:23;;;;;;;72.00;40.70;;;6.70;99.90;;;;;;5027971;28;20412;-86
2021/03/25 03:22:50;;;;;;;67.20;39.80;;;6.80;99.90;;;;;;5031172;28;20431;-86
2021/03/25 03:25:19;;;;;;;67.63;41.77;;;6.80;99.90;;;;;;5035025;28;20420;-87
2021/03/25 03:27:53;;;;;;;63.80;37.30;;;6.80;99.90;;;;;;5052997;28;20485;-87
2021/03/25 03:30:31;;;;;;;68.83;38.07;;;6.80;99.90;;;;;;5032717;28;20420;-86
2021/03/25 03:33:20;;;;;;;61.00;36.63;;;6.80;99.90;;;;;;5028418;28;20428;-86
2021/03/25 03:36:01;;;;;;;70.00;39.03;;;6.80;99.90;;;;;;5035531;28;20553;-86
2021/03/25 03:38:37;;;;;;;75.17;38.10;;;6.80;99.90;;;;;;5023485;28;20468;-86
2021/03/25 03:41:04;;;;;;;60.00;36.57;;;6.80;99.90;;;;;;5042707;28;20416;-86
2021/03/25 03:43:35;;;;;;;66.07;36.30;;;6.80;99.90;;;;;;5043190;28;20413;-86
2021/03/25 03:46:08;;;;;;;72.50;37.57;;;6.70;99.90;;;;;;5039608;28;20495;-86
2021/03/25 03:49:00;;;;;;;62.67;39.43;;;6.70;99.90;;;;;;5040337;28;20400;-87
2021/03/25 03:51:39;;;;;;;67.80;39.30;;;6.70;99.90;;;;;;5024189;28;20429;-87
2021/03/25 03:54:05;;;;;;;64.03;39.47;;;6.70;99.90;;;;;;5025241;28;20455;-87
2021/03/25 03:56:50;;;;;;;65.70;39.23;;;6.70;99.90;;;;;;5040477;28;20416;-86
2021/03/25 03:59:25;;;;;;;66.17;38.70;;;6.60;99.90;;;;;;5042822;28;20491;-85
2021/03/25 04:02:14;;;;;;;64.50;38.63;;;6.50;99.90;;;;;;5040032;28;20405;-85
2021/03/25 04:04:42;;;;;;;69.53;39.60;;;6.50;99.90;;;;;;5051728;28;20416;-85
2021/03/25 04:07:18;;;;;;;72.17;40.40;;;6.40;99.90;;;;;;5033593;28;20456;-86
2021/03/25 04:09:50;;;;;;;63.27;39.17;;;6.40;99.90;;;;;;5051911;28;20778;-85
2021/03/25 04:12:22;;;;;;;66.53;39.87;;;6.30;99.90;;;;;;5052175;28;20407;-85
2021/03/25 04:14:52;;;;;;;68.43;40.10;;;6.40;99.90;;;;;;5051753;28;20975;-85
2021/03/25 04:17:30;;;;;;;72.73;40.57;;;6.30;99.90;;;;;;5052159;28;20401;-85
2021/03/25 04:20:02;;;;;;;65.77;38.60;;;6.20;99.90;;;;;;5052994;28;20412;-85
2021/03/25 04:22:31;;;;;;;65.00;39.50;;;6.10;99.90;;;;;;5037646;28;20416;-85
2021/03/25 04:25:02;;;;;;;71.30;40.20;;;6.10;99.90;;;;;;5037745;28;20416;-86
2021/03/25 04:27:32;;;;;;;64.23;38.40;;;6.10;99.90;;;;;;5055819;28;20745;-85
2021/03/25 04:30:04;;;;;;;72.27;39.03;;;5.90;99.90;;;;;;5056309;28;20412;-85
2021/03/25 04:32:33;;;;;;;61.13;37.23;;;5.90;99.90;;;;;;5056866;28;20404;-85
2021/03/25 04:35:01;;;;;;;59.30;37.57;;;5.90;99.90;;;;;;5057417;28;20479;-85
2021/03/25 04:37:29;;;;;;;65.57;39.07;;;5.80;99.90;;;;;;5037823;28;20435;-85
2021/03/25 04:39:58;;;;;;;65.03;36.37;;;5.70;99.90;;;;;;5037253;28;20967;-86
2021/03/25 04:42:24;;;;;;;67.87;39.83;;;5.60;99.90;;;;;;5037737;28;20420;-87
2021/03/25 04:45:07;;;;;;;68.97;38.00;;;5.60;99.90;;;;;;5038428;28;20480;-86
2021/03/25 04:47:39;;;;;;;70.67;39.33;;;5.70;99.90;;;;;;5056313;28;20249;-85
2021/03/25 04:50:17;;;;;;;66.00;38.73;;;5.70;99.90;;;;;;5055998;28;20436;-85
2021/03/25 04:52:43;;;;;;;59.37;37.23;;;5.70;99.90;;;;;;5055205;28;20412;-86
2021/03/25 04:55:20;;;;;;;71.73;42.10;;;5.70;99.90;;;;;;5054875;28;20494;-87
2021/03/25 04:57:59;;;;;;;66.93;39.90;;;5.80;99.90;;;;;;5037371;28;20176;-86
2021/03/25 05:00:29;;;;;;;65.20;38.67;;;5.90;99.90;;;;;;5054573;28;20457;-86
2021/03/25 05:02:55;;;;;;;63.43;36.93;;;5.90;99.90;;;;;;5055131;28;20438;-87
2021/03/25 05:05:27;;;;;;;66.50;37.60;;;6.00;99.90;;;;;;5037335;28;20412;-87
2021/03/25 05:08:04;;;;;;;70.97;42.23;;;6.00;99.90;;;;;;5055051;28;20169;-86
2021/03/25 05:10:46;;;;;;;74.80;40.40;;;6.10;99.90;;;;;;5037141;28;20426;-86
2021/03/25 05:13:24;;;;;;;73.70;40.40;;;6.20;99.90;;;;;;5055056;28;20914;-87
2021/03/25 05:16:12;;;;;;;71.07;41.00;;;6.20;99.90;;;;;;5036576;28;20485;-86
2021/03/25 05:18:45;;;;;;;76.90;42.47;;;6.30;99.90;;;;;;5037056;28;20431;-87
2021/03/25 05:21:21;;;;;;;69.23;40.00;;;6.30;99.90;;;;;;5054749;28;20417;-86
2021/03/25 05:24:14;;;;;;;77.60;40.63;;;6.30;99.90;;;;;;5036865;28;20431;-86
2021/03/25 05:26:49;;;;;;;69.23;41.50;;;6.40;99.90;;;;;;5049763;28;20482;-86
2021/03/25 05:29:17;;;;;;;74.00;40.50;;;6.40;99.90;;;;;;5036459;28;20481;-86
2021/03/25 05:31:45;;;;;;;77.27;43.07;;;6.50;99.90;;;;;;5036331;28;20412;-87
2021/03/25 05:34:15;;;;;;;77.73;42.47;;;6.50;99.90;;;;;;5036765;28;20467;-87
2021/03/25 05:36:41;;;;;;;82.23;43.40;;;6.60;99.90;;;;;;5054677;28;20496;-86
2021/03/25 05:39:06;;;;;;;70.67;42.90;;;6.60;99.90;;;;;;5044665;28;20458;-87
2021/03/25 05:41:36;;;;;;;66.20;39.97;;;6.70;99.90;;;;;;5036860;28;20170;-87
2021/03/25 05:44:39;;;;;;;68.90;40.87;;;6.60;99.90;;;;;;5036283;28;20233;-86
2021/03/25 05:47:56;;;;;;;70.17;40.47;;;6.80;99.90;;;;;;5036324;28;20428;-87
2021/03/25 05:50:36;;;;;;;72.87;41.53;;;6.80;99.90;;;;;;5054370;28;20420;-88
2021/03/25 05:53:29;;;;;;;70.70;41.87;;;6.90;99.90;;;;;;5054296;28;20447;-89
2021/03/25 05:56:05;;;;;;;66.33;39.83;;;7.00;99.90;;;;;;5035316;28;20468;-90
2021/03/25 05:58:34;;;;;;;62.20;38.30;;;7.10;99.90;;;;;;5036709;28;20408;-89
2021/03/25 06:01:26;;;;;;;68.23;38.67;;;7.10;99.90;;;;;;5054644;28;20416;-86
2021/03/25 06:04:01;;;;;;;73.23;41.90;;;7.10;99.90;;;;;;5037179;28;20503;-89
2021/03/25 06:06:56;;;;;;;62.40;37.83;;;7.30;99.90;;;;;;5054663;28;20408;-90
2021/03/25 06:09:38;;;;;;;58.57;37.23;;;7.30;99.90;;;;;;5054801;28;20415;-90
2021/03/25 06:12:16;;;;;;;59.73;38.00;;;7.30;99.90;;;;;;5054521;28;20420;-89
2021/03/25 06:14:41;;;;;;;63.00;37.73;;;7.50;99.90;;;;;;5054492;28;20466;-88
2021/03/25 06:17:15;;;;;;;61.33;36.40;;;7.60;99.90;;;;;;5036790;28;20424;-90
2021/03/25 06:20:02;;;;;;;61.40;39.00;;;7.70;99.90;;;;;;5054794;28;20223;-89
2021/03/25 06:22:38;;;;;;;62.53;36.47;;;7.80;99.90;;;;;;5037312;28;20435;-90
2021/03/25 06:25:19;;;;;;;54.27;35.90;;;7.90;99.90;;;;;;5037050;28;20427;-89
2021/03/25 06:28:11;;;;;;;59.10;35.33;;;8.00;99.90;;;;;;5037373;28;20412;-91
2021/03/25 06:31:00;;;;;;;57.50;34.27;;;8.00;99.90;;;;;;5036977;28;20523;-89
2021/03/25 06:33:32;;;;;;;54.97;34.60;;;8.00;99.90;;;;;;5026536;28;20825;-90
2021/03/25 06:36:11;;;;;;;61.60;37.73;;;8.00;99.90;;;;;;5054647;28;20482;-90
2021/03/25 06:38:44;;;;;;;63.63;36.53;;;8.10;99.90;;;;;;5037076;28;20502;-88
2021/03/25 06:41:22;;;;;;;59.03;34.37;;;8.10;99.90;;;;;;5035971;28;20470;-89
2021/03/25 06:43:53;;;;;;;55.93;36.03;;;8.20;99.90;;;;;;5035203;28;20814;-88
2021/03/25 06:46:39;;;;;;;53.70;33.97;;;8.30;99.90;;;;;;5036219;28;20490;-89
2021/03/25 06:49:10;;;;;;;50.77;33.80;;;8.30;99.90;;;;;;5035844;28;20511;-89
2021/03/25 06:51:36;;;;;;;59.43;36.93;;;8.40;99.90;;;;;;5036131;28;20420;-89
2021/03/25 06:54:12;;;;;;;58.47;33.77;;;8.50;99.90;;;;;;5035978;28;20499;-89
2021/03/25 06:56:45;;;;;;;50.73;32.87;;;8.60;99.90;;;;;;5033431;28;20428;-88
2021/03/25 06:59:31;;;;;;;51.50;32.97;;;8.70;99.90;;;;;;5034465;28;20463;-89
2021/03/25 07:02:20;;;;;;;52.67;35.00;;;8.80;99.90;;;;;;5051640;28;20956;-87
2021/03/25 07:04:49;;;;;;;54.70;34.57;;;8.90;99.90;;;;;;5049822;28;21249;-92
2021/03/25 07:07:29;;;;;;;53.03;34.00;;;9.00;99.90;;;;;;5047010;28;20419;-89
2021/03/25 07:09:56;;;;;;;49.53;31.80;;;9.10;99.90;;;;;;5033889;28;20413;-89
2021/03/25 07:12:33;;;;;;;47.30;31.13;;;9.20;99.90;;;;;;5033924;28;20917;-88
2021/03/25 07:15:00;;;;;;;57.13;34.83;;;9.30;99.90;;;;;;5037340;28;20556;-89
2021/03/25 07:17:36;;;;;;;48.87;30.57;;;9.40;99.90;;;;;;5039129;28;20413;-88
2021/03/25 07:20:29;;;;;;;55.27;31.77;;;9.50;99.90;;;;;;5038799;28;20516;-89
2021/03/25 07:23:10;;;;;;;52.33;33.27;;;9.60;99.90;;;;;;5040182;28;20425;-89
2021/03/25 07:25:40;;;;;;;52.27;32.50;;;9.60;99.90;;;;;;5036166;28;20428;-91
2021/03/25 07:28:16;;;;;;;50.30;34.70;;;9.70;99.90;;;;;;5015339;28;20421;-88
2021/03/25 07:30:45;;;;;;;52.57;32.57;;;9.80;99.90;;;;;;5034170;28;20417;-90
2021/03/25 07:33:23;;;;;;;53.07;32.90;;;9.80;99.90;;;;;;5033365;28;20420;-91
2021/03/25 07:35:54;;;;;;;57.83;33.90;;;9.90;99.90;;;;;;5033610;28;20462;-90
2021/03/25 07:38:32;;;;;;;55.47;33.10;;;9.80;99.90;;;;;;5033474;28;20424;-90
2021/03/25 07:41:29;;;;;;;49.40;31.30;;;10.00;99.90;;;;;;5015772;28;20425;-91
2021/03/25 07:44:05;;;;;;;49.80;31.17;;;10.00;99.90;;;;;;5011810;28;20422;-90
2021/03/25 07:46:43;;;;;;;53.27;31.60;;;10.00;99.90;;;;;;5051492;28;20443;-88
2021/03/25 07:49:12;;;;;;;52.37;32.40;;;10.10;99.90;;;;;;5051508;28;20417;-90
2021/03/25 07:51:53;;;;;;;47.27;31.37;;;10.20;99.90;;;;;;5046788;28;20967;-91
2021/03/25 07:54:37;;;;;;;48.27;31.83;;;10.30;99.90;;;;;;5036148;28;20568;-89
2021/03/25 07:57:15;;;;;;;50.30;33.97;;;10.40;99.90;;;;;;5038554;28;20421;-89
2021/03/25 07:59:52;;;;;;;46.00;31.53;;;10.60;99.90;;;;;;5037827;28;20425;-90
2021/03/25 08:02:29;;;;;;;45.40;30.40;;;10.80;99.90;;;;;;5037130;28;20426;-90
2021/03/25 08:04:56;;;;;;;48.10;31.47;;;10.90;99.90;;;;;;5037724;28;20410;-90
2021/03/25 08:07:23;;;;;;;48.00;31.40;;;11.00;99.90;;;;;;5037112;28;20413;-92
2021/03/25 08:09:58;;;;;;;51.87;33.33;;;11.20;99.90;;;;;;5037206;28;20419;-90
2021/03/25 08:12:36;;;;;;;48.00;30.33;;;11.40;99.90;;;;;;5037143;28;20465;-90
2021/03/25 08:15:26;;;;;;;47.40;30.47;;;11.60;99.90;;;;;;5036193;28;20467;-90
2021/03/25 08:18:06;;;;;;;46.23;29.67;;;12.00;99.90;;;;;;5036570;28;20463;-91
2021/03/25 08:20:49;;;;;;;39.50;28.43;;;12.20;99.90;;;;;;5036630;28;20444;-90
2021/03/25 08:23:35;;;;;;;46.50;29.63;;;12.50;99.90;;;;;;5037448;28;20455;-87
2021/03/25 08:26:15;;;;;;;43.23;29.33;;;12.90;99.90;;;;;;5036140;28;20460;-91
2021/03/25 08:29:22;;;;;;;48.53;28.23;;;13.50;99.90;;;;;;5036267;28;20743;-90
2021/03/25 08:32:09;;;;;;;43.20;29.37;;;14.00;99.90;;;;;;5013043;28;20418;-91
2021/03/25 08:34:53;;;;;;;40.30;26.23;;;14.70;99.90;;;;;;5036039;28;20460;-91
2021/03/25 08:37:30;;;;;;;39.23;27.47;;;15.10;99.90;;;;;;5035750;28;20447;-89
2021/03/25 08:40:19;;;;;;;36.97;25.23;;;15.40;99.90;;;;;;5035508;28;20462;-90
2021/03/25 08:42:53;;;;;;;34.40;22.97;;;16.10;99.90;;;;;;5035698;28;20399;-90
2021/03/25 08:45:50;;;;;;;35.97;24.50;;;16.70;99.80;;;;;;5035300;28;20410;-89
2021/03/25 08:48:25;;;;;;;31.13;24.07;;;17.20;97.60;;;;;;5035773;28;20411;-91
2021/03/25 08:51:06;;;;;;;30.97;23.10;;;17.70;96.10;;;;;;5018209;28;20829;-90
2021/03/25 08:53:43;;;;;;;36.90;24.00;;;18.20;94.80;;;;;;5034978;28;20471;-87
2021/03/25 08:56:37;;;;;;;27.50;20.80;;;19.60;92.30;;;;;;5034248;28;20464;-86
2021/03/25 08:59:18;;;;;;;33.33;23.33;;;20.90;83.90;;;;;;5011024;28;20413;-88
2021/03/25 09:01:50;;;;;;;35.33;23.70;;;21.60;79.10;;;;;;5035140;28;20444;-88
2021/03/25 09:04:17;;;;;;;26.80;20.90;;;21.80;74.30;;;;;;5035104;28;20409;-88
2021/03/25 09:06:46;;;;;;;31.37;22.70;;;21.70;73.80;;;;;;5034257;28;20422;-85
2021/03/25 09:09:31;;;;;;;32.53;21.43;;;21.90;72.00;;;;;;5035116;28;20471;-88
2021/03/25 09:12:01;;;;;;;27.93;21.97;;;21.50;72.80;;;;;;5035093;28;20519;-87
2021/03/25 09:14:29;;;;;;;29.83;22.77;;;21.90;72.90;;;;;;5032832;28;20846;-88
2021/03/25 09:17:03;;;;;;;26.67;21.90;;;22.90;68.40;;;;;;5034393;28;20421;-88
2021/03/25 09:19:36;;;;;;;27.43;22.80;;;23.80;64.40;;;;;;5034565;28;20408;-85
2021/03/25 09:22:02;;;;;;;26.87;21.70;;;24.90;58.40;;;;;;5034061;28;20420;-88
2021/03/25 09:24:28;;;;;;;26.70;21.87;;;25.10;84.30;;;;;;5033932;28;20832;-88
2021/03/25 09:26:58;;;;;;;30.53;22.67;;;;;;;;;;5034499;28;20186;-88
2021/03/25 09:29:32;;;;;;;27.43;22.47;;;;;;;;;;5033560;28;20181;-89
2021/03/25 09:31:58;;;;;;;25.73;22.80;;;;;;;;;;5033703;28;20413;-87
2021/03/25 09:34:26;;;;;;;27.77;21.10;;;;;;;;;;5033193;28;20457;-86
2021/03/25 09:37:05;;;;;;;24.13;21.43;;;;;;;;;;5033394;28;20202;-86
2021/03/25 09:39:35;;;;;;;27.83;22.63;;;;;;;;;;5033361;28;20405;-88
2021/03/25 09:42:04;;;;;;;26.03;20.80;;;;;;;;;;5016368;28;20475;-88
2021/03/25 09:44:36;;;;;;;25.93;21.30;;;;;;;;;;5015779;28;20416;-86
2021/03/25 09:47:02;;;;;;;25.17;21.37;;;;;;;;;;5033851;28;20448;-89
2021/03/25 09:49:33;;;;;;;25.87;21.63;;;;;;;;;;5016163;28;20409;-85
2021/03/25 09:52:09;;;;;;;23.47;20.90;;;;;;;;;;5033901;28;20417;-91
2021/03/25 09:54:38;;;;;;;24.63;20.97;;;;;;;;;;5013168;28;20492;-89
2021/03/25 09:57:19;;;;;;;23.80;20.57;;;;;;;;;;5014332;28;20457;-89
2021/03/25 09:59:50;;;;;;;24.83;20.00;;;;;;;;;;5012856;28;20843;-84
2021/03/25 10:02:36;;;;;;;21.00;18.43;;;;;;;;;;5015496;28;20410;-87
2021/03/25 10:05:27;;;;;;;23.07;18.80;;;29.50;79.00;;;;;;5020104;28;20760;-88
2021/03/25 10:08:24;;;;;;;24.43;19.20;;;29.80;60.70;;;;;;5019065;28;20480;-88
2021/03/25 10:10:54;;;;;;;21.27;18.90;;;29.40;61.00;;;;;;5014633;28;20911;-88
2021/03/25 10:13:34;;;;;;;26.70;21.17;;;28.90;59.90;;;;;;5012406;28;20426;-89
2021/03/25 10:16:21;;;;;;;22.30;19.60;;;28.30;59.40;;;;;;5013841;28;20414;-88
2021/03/25 10:18:49;;;;;;;21.50;18.40;;;28.60;60.00;;;;;;5013637;28;20445;-87
2021/03/25 10:21:19;;;;;;;24.70;19.60;;;29.00;58.80;;;;;;5013478;28;20438;-88
2021/03/25 10:23:51;;;;;;;20.97;18.77;;;29.70;57.40;;;;;;5110925;23;20487;-89
2021/03/25 10:26:36;;;;;;;21.90;18.00;;;29.80;54.60;;;;;;5072428;28;20829;-86
2021/03/25 10:29:11;;;;;;;22.03;18.20;;;30.30;53.50;;;;;;5054342;28;20419;-86
2021/03/25 10:31:40;;;;;;;20.00;18.00;;;30.80;54.00;;;;;;5054612;28;20441;-84
2021/03/25 10:34:15;;;;;;;20.97;16.30;;;30.70;51.20;;;;;;5054191;28;20421;-86
2021/03/25 10:37:23;;;;;;;17.17;14.70;;;30.30;52.80;;;;;;5072617;28;20419;-84
2021/03/25 10:39:49;;;;;;;17.27;14.27;;;29.90;54.60;;;;;;5040132;28;20419;-86
2021/03/25 10:42:27;;;;;;;15.40;13.60;;;29.90;53.10;;;;;;5072077;28;20480;-85
2021/03/25 10:44:54;;;;;;;18.60;15.23;;;30.40;50.60;;;;;;5071331;28;20504;-85
2021/03/25 10:47:24;;;;;;;18.93;15.87;;;30.60;49.10;;;;;;5071991;28;20407;-87
2021/03/25 10:49:57;;;;;;;20.37;15.37;;;31.10;47.40;;;;;;5054396;28;20439;-88
2021/03/25 10:52:33;;;;;;;23.97;16.03;;;31.40;45.50;;;;;;5072328;28;20415;-88
2021/03/25 10:55:05;;;;;;;19.67;16.10;;;31.60;34.00;;;;;;5072126;28;20407;-87
2021/03/25 10:57:31;;;;;;;17.57;13.93;;;31.80;32.90;;;;;;5072299;28;20465;-86
2021/03/25 11:00:02;;;;;;;22.33;13.70;;;32.00;32.20;;;;;;5072351;28;20423;-88
2021/03/25 11:02:41;;;;;;;16.57;14.27;;;31.70;44.60;;;;;;5072581;28;20464;-87
2021/03/25 11:05:18;;;;;;;16.90;13.97;;;30.10;43.90;;;;;;5054291;28;20494;-88
2021/03/25 11:07:52;;;;;;;17.10;14.87;;;28.70;43.70;;;;;;5072057;28;20419;-88
2021/03/25 11:10:26;;;;;;;18.73;14.60;;;28.70;41.40;;;;;;5072171;28;20421;-87
2021/03/25 11:13:11;;;;;;;19.00;13.93;;;29.40;40.80;;;;;;5071818;28;20430;-88
2021/03/25 11:15:42;;;;;;;18.37;14.70;;;29.50;39.90;;;;;;5053924;28;20407;-87
2021/03/25 11:18:19;;;;;;;17.70;14.60;;;28.40;46.70;;;;;;5051484;28;20519;-89
2021/03/25 11:20:45;;;;;;;14.47;12.03;;;28.20;45.70;;;;;;5070895;28;20418;-86
2021/03/25 11:23:15;;;;;;;17.70;13.50;;;28.60;41.00;;;;;;5070505;28;20470;-86
2021/03/25 11:25:41;;;;;;;15.73;14.10;;;29.10;37.20;;;;;;5074707;28;20236;-87
2021/03/25 11:28:12;;;;;;;19.50;14.93;;;28.30;40.40;;;;;;5075498;28;20410;-86
2021/03/25 11:30:46;;;;;;;17.70;13.83;;;27.10;36.70;;;;;;5077816;28;20177;-86
2021/03/25 11:33:31;;;;;;;12.63;9.63;;;26.50;37.50;;;;;;5076416;28;20403;-87
2021/03/25 11:35:59;;;;;;;10.87;9.00;;;26.60;37.40;;;;;;5075309;28;20950;-86
2021/03/25 11:38:25;;;;;;;15.63;11.10;;;26.10;36.60;;;;;;5077522;28;20505;-88
2021/03/25 11:40:55;;;;;;;14.70;11.27;;;25.20;37.90;;;;;;5076187;28;20952;-88
2021/03/25 11:43:25;;;;;;;18.80;11.87;;;23.60;40.40;;;;;;5075797;28;20195;-86
2021/03/25 11:45:55;;;;;;;16.60;10.93;;;22.40;42.30;;;;;;5075641;28;20554;-87
2021/03/25 11:48:35;;;;;;;13.50;10.13;;;21.60;43.30;;;;;;5075615;28;20777;-85
2021/03/25 11:51:15;;;;;;;14.57;9.93;;;21.40;43.90;;;;;;5076309;28;20442;-87
2021/03/25 11:53:53;;;;;;;16.17;11.73;;;20.90;45.00;;;;;;5075278;28;20460;-87
2021/03/25 11:56:27;;;;;;;17.43;11.23;;;20.60;46.10;;;;;;5075082;28;20398;-85
2021/03/25 11:58:58;;;;;;;15.40;9.83;;;20.20;47.40;;;;;;5074952;28;20414;-86
2021/03/25 12:01:30;;;;;;;14.10;10.07;;;20.00;48.80;;;;;;5074837;28;20397;-85
2021/03/25 12:04:19;;;;;;;12.43;8.67;;;19.80;49.70;;;;;;5074955;28;20460;-85
2021/03/25 12:07:19;;;;;;;13.87;9.73;;;19.60;50.20;;;;;;5067211;28;20448;-85
2021/03/25 12:10:17;;;;;;;13.80;10.50;;;19.00;52.10;;;;;;5052302;28;20425;-85
2021/03/25 12:12:45;;;;;;;12.77;10.00;;;18.70;55.90;;;;;;5074395;28;20417;-86
2021/03/25 12:15:11;;;;;;;11.70;8.50;;;18.60;58.30;;;;;;5074819;28;20978;-85
2021/03/25 12:17:43;;;;;;;12.67;9.50;;;18.60;59.50;;;;;;5075255;28;20848;-87
2021/03/25 12:20:09;;;;;;;15.10;9.77;;;;;;;;;;5075451;28;20404;-88
2021/03/25 12:22:40;;;;;;;14.00;9.17;;;;;;;;;;5076734;28;20452;-87
2021/03/25 12:25:06;;;;;;;13.03;7.87;;;;;;;;;;5074294;28;20933;-85
2021/03/25 12:27:32;;;;;;;12.30;8.53;;;;;;;;;;5074589;28;20464;-87
2021/03/25 12:29:59;;;;;;;12.63;9.60;;;;;;;;;;5075298;28;20437;-88
2021/03/25 12:32:27;;;;;;;14.20;8.90;;;;;;;;;;5075516;28;20765;-88
2021/03/25 12:34:53;;;;;;;12.00;7.43;;;;;;;;;;5075355;28;20438;-90
2021/03/25 12:37:21;;;;;;;10.23;7.80;;;;;;;;;;5079235;28;20449;-87
2021/03/25 12:39:47;;;;;;;11.77;8.60;;;;;;;;;;5074728;28;20512;-86
2021/03/25 12:42:17;;;;;;;9.00;6.93;;;;;;;;;;5074199;28;20924;-89
2021/03/25 12:44:43;;;;;;;10.90;6.63;;;;;;;;;;5075539;28;20552;-87
2021/03/25 12:47:11;;;;;;;11.53;7.13;;;;;;;;;;5073799;28;20520;-91
2021/03/25 12:49:37;;;;;;;11.40;6.20;;;;;;;;;;5074942;28;20420;-90
2021/03/25 12:52:03;;;;;;;7.23;5.30;;;;;;;;;;5073181;28;20475;-84
2021/03/25 12:54:29;;;;;;;10.87;5.50;;;;;;;;;;5074394;28;20413;-88
2021/03/25 12:56:59;;;;;;;12.20;6.50;;;;;;;;;;5074099;28;20490;-89
2021/03/25 12:59:26;;;;;;;7.43;5.60;;;;;;;;;;5072367;28;20786;-85
2021/03/25 13:01:52;;;;;;;7.80;5.10;;;;;;;;;;5068284;28;20985;-87
2021/03/25 13:04:18;;;;;;;9.43;5.17;;;;;;;;;;5059028;28;20425;-89
2021/03/25 13:06:44;;;;;;;7.83;5.30;;;;;;;;;;5054245;28;20448;-86
2021/03/25 13:09:10;;;;;;;9.60;5.97;;;;;;;;;;5066324;28;20883;-87
2021/03/25 13:11:36;;;;;;;7.70;5.50;;;;;;;;;;5047249;28;20439;-86
2021/03/25 13:14:03;;;;;;;10.10;6.43;;;;;;;;;;5061899;28;20439;-86
2021/03/25 13:16:29;;;;;;;7.00;5.00;;;;;;;;;;5073695;28;20491;-87
2021/03/25 13:18:55;;;;;;;10.70;6.93;;;;;;;;;;5073500;28;20418;-85
2021/03/25 13:21:21;;;;;;;10.37;6.50;;;;;;;;;;5055555;28;20440;-82
2021/03/25 13:23:48;;;;;;;9.73;6.53;;;;;;;;;;5073042;28;20460;-85
2021/03/25 13:26:14;;;;;;;9.13;5.00;;;;;;;;;;5072503;28;20484;-87